sensor_id;sensor_type;location;lat;lon;timestamp;temperature;humidity
9668;DHT22;4872;48.316;10.650;2023-02-21T05:06:33;3.60;88.50
9668;DHT22;4872;48.316;10.650;2023-02-21T05:09:00;3.60;88.30
9668;DHT22;4872;48.316;10.650;2023-02-21T05:11:27;4.10;88.40
9668;DHT22;4872;48.316;10.650;2023-02-21T05:13:54;3.70;88.20
9668;DHT22;4872;48.316;10.650;2023-02-21T05:16:21;3.80;88.50
9668;DHT22;4872;48.316;10.650;2023-02-21T05:18:48;3.20;88.40
9668;DHT22;4872;48.316;10.650;2023-02-21T05:21:16;3.50;90.10
9668;DHT22;4872;48.316;10.650;2023-02-21T05:23:45;3.20;90.10
9668;DHT22;4872;48.316;10.650;2023-02-21T05:26:21;3.10;90.40
9668;DHT22;4872;48.316;10.650;2023-02-21T05:28:50;3.60;91.00
9668;DHT22;4872;48.316;10.650;2023-02-21T05:31:17;3.10;91.10
9668;DHT22;4872;48.316;10.650;2023-02-21T05:33:44;3.10;90.90
9668;DHT22;4872;48.316;10.650;2023-02-21T05:36:11;3.20;90.80
9668;DHT22;4872;48.316;10.650;2023-02-21T05:38:47;3.50;90.80
9668;DHT22;4872;48.316;10.650;2023-02-21T05:41:14;3.10;90.20
9668;DHT22;4872;48.316;10.650;2023-02-21T05:43:42;3.20;90.30
9668;DHT22;4872;48.316;10.650;2023-02-21T05:46:18;3.20;90.20
9668;DHT22;4872;48.316;10.650;2023-02-21T05:48:46;3.10;90.10
9668;DHT22;4872;48.316;10.650;2023-02-21T05:51:13;3.10;90.20
9668;DHT22;4872;48.316;10.650;2023-02-21T05:53:40;3.10;90.00
9668;DHT22;4872;48.316;10.650;2023-02-21T05:56:08;4.30;90.90
9668;DHT22;4872;48.316;10.650;2023-02-21T05:58:35;3.80;90.80
9668;DHT22;4872;48.316;10.650;2023-02-21T06:01:02;4.10;91.10
9668;DHT22;4872;48.316;10.650;2023-02-21T06:03:29;3.10;90.60
9668;DHT22;4872;48.316;10.650;2023-02-21T06:05:56;3.40;90.80
9668;DHT22;4872;48.316;10.650;2023-02-21T06:08:23;3.20;90.60
9668;DHT22;4872;48.316;10.650;2023-02-21T06:10:50;3.10;90.50
9668;DHT22;4872;48.316;10.650;2023-02-21T06:13:19;3.10;90.70
9668;DHT22;4872;48.316;10.650;2023-02-21T06:15:46;3.40;90.50
9668;DHT22;4872;48.316;10.650;2023-02-21T06:18:13;3.10;90.70
9668;DHT22;4872;48.316;10.650;2023-02-21T06:20:40;4.40;90.90
9668;DHT22;4872;48.316;10.650;2023-02-21T06:23:07;3.00;90.60
9668;DHT22;4872;48.316;10.650;2023-02-21T06:25:33;3.10;90.40
9668;DHT22;4872;48.316;10.650;2023-02-21T06:28:00;3.50;90.40
9668;DHT22;4872;48.316;10.650;2023-02-21T06:30:28;3.70;90.40
9668;DHT22;4872;48.316;10.650;2023-02-21T06:32:55;3.30;90.40
9668;DHT22;4872;48.316;10.650;2023-02-21T06:35:22;3.40;90.50
9668;DHT22;4872;48.316;10.650;2023-02-21T06:37:49;3.30;90.50
9668;DHT22;4872;48.316;10.650;2023-02-21T06:40:16;4.40;91.30
9668;DHT22;4872;48.316;10.650;2023-02-21T06:42:43;3.30;90.90
9668;DHT22;4872;48.316;10.650;2023-02-21T06:45:10;3.40;90.90
9668;DHT22;4872;48.316;10.650;2023-02-21T06:47:38;3.60;90.90
9668;DHT22;4872;48.316;10.650;2023-02-21T06:50:05;4.10;91.00
9668;DHT22;4872;48.316;10.650;2023-02-21T06:52:32;4.10;91.20
9668;DHT22;4872;48.316;10.650;2023-02-21T06:54:59;4.70;91.40
9668;DHT22;4872;48.316;10.650;2023-02-21T06:57:26;5.20;91.40
9668;DHT22;4872;48.316;10.650;2023-02-21T06:59:52;5.00;91.00
9668;DHT22;4872;48.316;10.650;2023-02-21T07:02:19;5.20;90.90
9668;DHT22;4872;48.316;10.650;2023-02-21T07:04:48;5.60;89.30
9668;DHT22;4872;48.316;10.650;2023-02-21T07:07:15;5.70;89.80
9668;DHT22;4872;48.316;10.650;2023-02-21T07:09:42;6.10;89.40
9668;DHT22;4872;48.316;10.650;2023-02-21T07:12:09;6.00;87.60
9668;DHT22;4872;48.316;10.650;2023-02-21T07:14:36;5.80;88.10
9668;DHT22;4872;48.316;10.650;2023-02-21T07:17:02;6.10;88.20
9668;DHT22;4872;48.316;10.650;2023-02-21T07:19:29;6.80;88.10
9668;DHT22;4872;48.316;10.650;2023-02-21T07:21:57;6.50;85.70
9668;DHT22;4872;48.316;10.650;2023-02-21T07:24:24;7.20;87.20
9668;DHT22;4872;48.316;10.650;2023-02-21T07:26:51;7.00;85.70
9668;DHT22;4872;48.316;10.650;2023-02-21T07:29:18;7.30;86.20
9668;DHT22;4872;48.316;10.650;2023-02-21T07:31:44;7.40;85.60
9668;DHT22;4872;48.316;10.650;2023-02-21T07:34:11;7.50;85.00
9668;DHT22;4872;48.316;10.650;2023-02-21T07:36:39;7.80;85.30
9668;DHT22;4872;48.316;10.650;2023-02-21T07:39:08;7.80;85.10
9668;DHT22;4872;48.316;10.650;2023-02-21T07:41:34;8.30;85.50
9668;DHT22;4872;48.316;10.650;2023-02-21T07:44:01;8.30;84.30
9668;DHT22;4872;48.316;10.650;2023-02-21T07:46:28;8.60;84.50
9668;DHT22;4872;48.316;10.650;2023-02-21T07:48:55;8.80;84.30
9668;DHT22;4872;48.316;10.650;2023-02-21T07:51:22;9.20;83.00
9668;DHT22;4872;48.316;10.650;2023-02-21T07:53:48;9.50;83.30
9668;DHT22;4872;48.316;10.650;2023-02-21T07:56:17;9.80;82.40
9668;DHT22;4872;48.316;10.650;2023-02-21T07:58:43;9.80;79.90
9668;DHT22;4872;48.316;10.650;2023-02-21T08:01:10;10.20;80.60
9668;DHT22;4872;48.316;10.650;2023-02-21T08:03:37;10.20;80.70
9668;DHT22;4872;48.316;10.650;2023-02-21T08:06:05;10.50;79.40
9668;DHT22;4872;48.316;10.650;2023-02-21T08:08:33;10.40;79.70
9668;DHT22;4872;48.316;10.650;2023-02-21T08:11:00;10.50;79.10
9668;DHT22;4872;48.316;10.650;2023-02-21T08:13:28;10.50;79.40
9668;DHT22;4872;48.316;10.650;2023-02-21T08:15:55;10.50;79.10
9668;DHT22;4872;48.316;10.650;2023-02-21T08:18:22;10.60;78.80
9668;DHT22;4872;48.316;10.650;2023-02-21T08:20:49;10.70;80.10
9668;DHT22;4872;48.316;10.650;2023-02-21T08:23:17;10.70;78.40
9668;DHT22;4872;48.316;10.650;2023-02-21T08:25:44;10.90;80.20
9668;DHT22;4872;48.316;10.650;2023-02-21T08:28:11;10.80;80.60
9668;DHT22;4872;48.316;10.650;2023-02-21T08:30:39;11.10;79.70
9668;DHT22;4872;48.316;10.650;2023-02-21T08:33:06;11.10;79.00
9668;DHT22;4872;48.316;10.650;2023-02-21T08:35:33;11.20;79.80
9668;DHT22;4872;48.316;10.650;2023-02-21T08:37:59;11.60;79.90
9668;DHT22;4872;48.316;10.650;2023-02-21T08:40:28;11.60;78.40
9668;DHT22;4872;48.316;10.650;2023-02-21T08:42:57;11.90;77.90
9668;DHT22;4872;48.316;10.650;2023-02-21T08:45:25;12.40;76.90
9668;DHT22;4872;48.316;10.650;2023-02-21T08:47:54;12.80;75.70
9668;DHT22;4872;48.316;10.650;2023-02-21T08:50:22;12.90;74.60
9668;DHT22;4872;48.316;10.650;2023-02-21T08:52:50;13.30;75.00
9668;DHT22;4872;48.316;10.650;2023-02-21T08:55:17;13.60;75.20
9668;DHT22;4872;48.316;10.650;2023-02-21T08:57:46;13.60;75.10
9668;DHT22;4872;48.316;10.650;2023-02-21T09:00:14;14.00;74.70
9668;DHT22;4872;48.316;10.650;2023-02-21T09:02:41;14.20;74.30
9668;DHT22;4872;48.316;10.650;2023-02-21T09:05:11;14.60;73.30
9668;DHT22;4872;48.316;10.650;2023-02-21T09:07:38;15.00;72.50
9668;DHT22;4872;48.316;10.650;2023-02-21T09:10:06;15.50;72.00
9668;DHT22;4872;48.316;10.650;2023-02-21T09:12:34;15.60;70.70
9668;DHT22;4872;48.316;10.650;2023-02-21T09:15:01;15.60;69.70
9668;DHT22;4872;48.316;10.650;2023-02-21T09:17:28;15.80;69.30
9668;DHT22;4872;48.316;10.650;2023-02-21T09:19:58;15.80;66.60
9668;DHT22;4872;48.316;10.650;2023-02-21T09:22:26;15.30;67.60
9668;DHT22;4872;48.316;10.650;2023-02-21T09:24:53;15.40;67.90
9668;DHT22;4872;48.316;10.650;2023-02-21T09:27:20;15.50;67.50
9668;DHT22;4872;48.316;10.650;2023-02-21T09:30:02;15.70;67.10
9668;DHT22;4872;48.316;10.650;2023-02-21T09:32:29;16.20;66.10
9668;DHT22;4872;48.316;10.650;2023-02-21T09:34:56;15.00;66.00
9668;DHT22;4872;48.316;10.650;2023-02-21T09:37:23;15.00;66.40
9668;DHT22;4872;48.316;10.650;2023-02-21T09:39:51;14.90;66.90
9668;DHT22;4872;48.316;10.650;2023-02-21T09:42:19;15.00;67.20
9668;DHT22;4872;48.316;10.650;2023-02-21T09:44:47;14.60;66.60
9668;DHT22;4872;48.316;10.650;2023-02-21T09:47:20;14.40;67.90
9668;DHT22;4872;48.316;10.650;2023-02-21T09:49:51;14.70;67.80
9668;DHT22;4872;48.316;10.650;2023-02-21T09:52:24;14.30;68.40
9668;DHT22;4872;48.316;10.650;2023-02-21T09:54:57;14.30;68.60
9668;DHT22;4872;48.316;10.650;2023-02-21T09:57:25;14.30;67.40
9668;DHT22;4872;48.316;10.650;2023-02-21T09:59:52;14.40;66.50
9668;DHT22;4872;48.316;10.650;2023-02-21T10:02:31;14.70;64.90
9668;DHT22;4872;48.316;10.650;2023-02-21T10:05:16;15.00;66.00
9668;DHT22;4872;48.316;10.650;2023-02-21T10:07:54;15.10;65.20
9668;DHT22;4872;48.316;10.650;2023-02-21T10:10:28;15.50;65.60
9668;DHT22;4872;48.316;10.650;2023-02-21T10:13:03;15.70;65.20
9668;DHT22;4872;48.316;10.650;2023-02-21T10:15:39;15.10;64.30
9668;DHT22;4872;48.316;10.650;2023-02-21T10:18:18;15.40;65.20
9668;DHT22;4872;48.316;10.650;2023-02-21T10:20:48;15.30;65.20
9668;DHT22;4872;48.316;10.650;2023-02-21T10:23:20;15.90;64.90
9668;DHT22;4872;48.316;10.650;2023-02-21T10:25:52;15.90;64.50
9668;DHT22;4872;48.316;10.650;2023-02-21T10:28:22;16.00;63.60
9668;DHT22;4872;48.316;10.650;2023-02-21T10:30:52;16.10;63.80
9668;DHT22;4872;48.316;10.650;2023-02-21T10:33:20;16.60;64.40
9668;DHT22;4872;48.316;10.650;2023-02-21T10:35:47;16.30;63.20
9668;DHT22;4872;48.316;10.650;2023-02-21T10:38:18;16.00;64.30
9668;DHT22;4872;48.316;10.650;2023-02-21T10:40:47;16.20;64.10
9668;DHT22;4872;48.316;10.650;2023-02-21T10:43:21;16.10;63.30
9668;DHT22;4872;48.316;10.650;2023-02-21T10:45:54;16.90;61.40
9668;DHT22;4872;48.316;10.650;2023-02-21T10:48:25;17.20;61.50
9668;DHT22;4872;48.316;10.650;2023-02-21T10:51:05;17.10;61.10
9668;DHT22;4872;48.316;10.650;2023-02-21T10:53:34;16.40;62.00
9668;DHT22;4872;48.316;10.650;2023-02-21T10:56:26;16.90;60.60
9668;DHT22;4872;48.316;10.650;2023-02-21T10:58:57;16.90;60.30
9668;DHT22;4872;48.316;10.650;2023-02-21T11:01:34;17.00;60.80
9668;DHT22;4872;48.316;10.650;2023-02-21T11:04:04;17.20;60.70
9668;DHT22;4872;48.316;10.650;2023-02-21T11:06:33;17.60;60.30
9668;DHT22;4872;48.316;10.650;2023-02-21T11:09:01;17.40;60.70
9668;DHT22;4872;48.316;10.650;2023-02-21T11:11:34;17.50;60.60
9668;DHT22;4872;48.316;10.650;2023-02-21T11:14:21;16.90;61.30
9668;DHT22;4872;48.316;10.650;2023-02-21T11:17:14;17.10;62.30
9668;DHT22;4872;48.316;10.650;2023-02-21T11:19:45;17.90;61.10
9668;DHT22;4872;48.316;10.650;2023-02-21T11:22:12;18.50;59.90
9668;DHT22;4872;48.316;10.650;2023-02-21T11:24:48;17.80;59.60
9668;DHT22;4872;48.316;10.650;2023-02-21T11:27:17;18.10;59.60
9668;DHT22;4872;48.316;10.650;2023-02-21T11:29:48;18.10;59.10
9668;DHT22;4872;48.316;10.650;2023-02-21T11:32:23;18.40;58.90
9668;DHT22;4872;48.316;10.650;2023-02-21T11:34:50;18.90;58.10
9668;DHT22;4872;48.316;10.650;2023-02-21T11:37:26;19.90;57.90
9668;DHT22;4872;48.316;10.650;2023-02-21T11:39:53;20.70;57.60
9668;DHT22;4872;48.316;10.650;2023-02-21T11:42:26;20.40;56.70
9668;DHT22;4872;48.316;10.650;2023-02-21T11:45:14;19.90;57.00
9668;DHT22;4872;48.316;10.650;2023-02-21T11:47:53;19.50;56.50
9668;DHT22;4872;48.316;10.650;2023-02-21T11:50:25;19.80;56.60
9668;DHT22;4872;48.316;10.650;2023-02-21T11:52:58;19.80;56.80
9668;DHT22;4872;48.316;10.650;2023-02-21T11:55:27;20.70;56.00
9668;DHT22;4872;48.316;10.650;2023-02-21T11:58:04;21.70;54.80
9668;DHT22;4872;48.316;10.650;2023-02-21T12:00:42;22.80;53.60
9668;DHT22;4872;48.316;10.650;2023-02-21T12:03:24;22.90;53.50
9668;DHT22;4872;48.316;10.650;2023-02-21T12:05:59;23.10;51.90
9668;DHT22;4872;48.316;10.650;2023-02-21T12:08:38;23.30;52.50
9668;DHT22;4872;48.316;10.650;2023-02-21T12:11:27;24.20;51.70
9668;DHT22;4872;48.316;10.650;2023-02-21T12:14:08;24.40;49.50
9668;DHT22;4872;48.316;10.650;2023-02-21T12:16:44;25.30;48.60
9668;DHT22;4872;48.316;10.650;2023-02-21T12:19:29;24.90;48.30
9668;DHT22;4872;48.316;10.650;2023-02-21T12:22:01;25.50;46.60
9668;DHT22;4872;48.316;10.650;2023-02-21T12:24:46;24.60;46.30
9668;DHT22;4872;48.316;10.650;2023-02-21T12:27:22;24.70;45.20
9668;DHT22;4872;48.316;10.650;2023-02-21T12:30:06;24.80;45.40
9668;DHT22;4872;48.316;10.650;2023-02-21T12:32:48;26.00;45.90
9668;DHT22;4872;48.316;10.650;2023-02-21T12:35:40;26.90;44.30
9668;DHT22;4872;48.316;10.650;2023-02-21T12:38:13;26.90;42.70
9668;DHT22;4872;48.316;10.650;2023-02-21T12:40:50;27.70;42.00
9668;DHT22;4872;48.316;10.650;2023-02-21T12:46:19;27.80;41.10
9668;DHT22;4872;48.316;10.650;2023-02-21T12:48:51;27.00;41.80
9668;DHT22;4872;48.316;10.650;2023-02-21T12:51:21;25.50;41.70
9668;DHT22;4872;48.316;10.650;2023-02-21T12:53:53;24.40;43.20
9668;DHT22;4872;48.316;10.650;2023-02-21T12:56:25;23.20;42.50
9668;DHT22;4872;48.316;10.650;2023-02-21T12:58:55;21.40;43.40
9668;DHT22;4872;48.316;10.650;2023-02-21T13:01:27;21.20;44.40
9668;DHT22;4872;48.316;10.650;2023-02-21T13:04:05;21.40;45.50
9668;DHT22;4872;48.316;10.650;2023-02-21T13:06:37;20.50;45.50
9668;DHT22;4872;48.316;10.650;2023-02-21T13:09:13;20.10;46.60
9668;DHT22;4872;48.316;10.650;2023-02-21T13:11:45;20.00;47.00
9668;DHT22;4872;48.316;10.650;2023-02-21T13:14:17;18.80;47.60
9668;DHT22;4872;48.316;10.650;2023-02-21T13:16:46;18.70;47.40
9668;DHT22;4872;48.316;10.650;2023-02-21T13:19:15;18.60;48.00
9668;DHT22;4872;48.316;10.650;2023-02-21T13:22:05;18.60;47.60
9668;DHT22;4872;48.316;10.650;2023-02-21T13:24:58;18.80;48.30
9668;DHT22;4872;48.316;10.650;2023-02-21T13:27:46;18.90;48.40
9668;DHT22;4872;48.316;10.650;2023-02-21T13:30:20;18.70;48.20
9668;DHT22;4872;48.316;10.650;2023-02-21T13:32:51;18.70;49.60
9668;DHT22;4872;48.316;10.650;2023-02-21T13:35:25;18.70;49.30
9668;DHT22;4872;48.316;10.650;2023-02-21T13:37:54;18.80;49.90
9668;DHT22;4872;48.316;10.650;2023-02-21T13:40:23;18.70;48.70
9668;DHT22;4872;48.316;10.650;2023-02-21T13:43:00;18.70;49.10
9668;DHT22;4872;48.316;10.650;2023-02-21T13:45:28;18.60;49.10
9668;DHT22;4872;48.316;10.650;2023-02-21T13:48:29;18.50;49.90
9668;DHT22;4872;48.316;10.650;2023-02-21T13:50:58;18.60;49.40
9668;DHT22;4872;48.316;10.650;2023-02-21T13:53:27;18.70;48.90
9668;DHT22;4872;48.316;10.650;2023-02-21T13:56:17;18.90;48.80
9668;DHT22;4872;48.316;10.650;2023-02-21T13:58:46;18.80;49.20
9668;DHT22;4872;48.316;10.650;2023-02-21T14:07:16;19.10;48.70
9668;DHT22;4872;48.316;10.650;2023-02-21T14:09:45;19.30;50.00
9668;DHT22;4872;48.316;10.650;2023-02-21T14:12:12;19.50;50.00
9668;DHT22;4872;48.316;10.650;2023-02-21T14:14:40;19.60;50.20
9668;DHT22;4872;48.316;10.650;2023-02-21T14:17:09;19.70;50.00
9668;DHT22;4872;48.316;10.650;2023-02-21T14:19:41;19.70;49.60
9668;DHT22;4872;48.316;10.650;2023-02-21T14:22:15;19.70;48.70
9668;DHT22;4872;48.316;10.650;2023-02-21T14:24:47;19.60;48.40
9668;DHT22;4872;48.316;10.650;2023-02-21T14:27:33;19.80;48.10
9668;DHT22;4872;48.316;10.650;2023-02-21T14:30:31;20.00;48.80
9668;DHT22;4872;48.316;10.650;2023-02-21T14:33:13;20.00;48.30
9668;DHT22;4872;48.316;10.650;2023-02-21T14:35:46;20.00;49.30
9668;DHT22;4872;48.316;10.650;2023-02-21T14:38:20;19.80;50.00
9668;DHT22;4872;48.316;10.650;2023-02-21T14:40:55;19.70;50.60
9668;DHT22;4872;48.316;10.650;2023-02-21T14:43:39;19.70;49.80
9668;DHT22;4872;48.316;10.650;2023-02-21T14:49:27;19.50;49.10
9668;DHT22;4872;48.316;10.650;2023-02-21T14:55:25;19.90;49.90
9668;DHT22;4872;48.316;10.650;2023-02-21T14:58:28;20.00;48.90
9668;DHT22;4872;48.316;10.650;2023-02-21T15:01:05;20.20;48.60
9668;DHT22;4872;48.316;10.650;2023-02-21T15:03:36;20.30;48.60
9668;DHT22;4872;48.316;10.650;2023-02-21T15:06:06;20.40;48.10
9668;DHT22;4872;48.316;10.650;2023-02-21T15:08:41;20.30;47.80
9668;DHT22;4872;48.316;10.650;2023-02-21T15:11:21;20.70;48.40
9668;DHT22;4872;48.316;10.650;2023-02-21T15:14:12;20.50;49.00
9668;DHT22;4872;48.316;10.650;2023-02-21T15:16:42;20.80;49.00
9668;DHT22;4872;48.316;10.650;2023-02-21T15:19:20;21.10;48.60
9668;DHT22;4872;48.316;10.650;2023-02-21T15:22:15;21.60;48.90
9668;DHT22;4872;48.316;10.650;2023-02-21T15:24:59;23.20;48.00
9668;DHT22;4872;48.316;10.650;2023-02-21T15:27:29;24.40;47.00
9668;DHT22;4872;48.316;10.650;2023-02-21T15:30:07;25.70;45.60
9668;DHT22;4872;48.316;10.650;2023-02-21T15:32:34;27.00;44.40
9668;DHT22;4872;48.316;10.650;2023-02-21T15:35:03;27.70;43.60
9668;DHT22;4872;48.316;10.650;2023-02-21T15:37:31;28.30;42.60
9668;DHT22;4872;48.316;10.650;2023-02-21T15:40:02;28.70;42.00
9668;DHT22;4872;48.316;10.650;2023-02-21T15:42:39;29.50;41.40
9668;DHT22;4872;48.316;10.650;2023-02-21T15:45:11;30.50;40.50
9668;DHT22;4872;48.316;10.650;2023-02-21T15:47:42;31.30;39.80
9668;DHT22;4872;48.316;10.650;2023-02-21T15:50:11;32.00;39.30
9668;DHT22;4872;48.316;10.650;2023-02-21T15:52:42;32.40;39.20
9668;DHT22;4872;48.316;10.650;2023-02-21T15:55:28;32.70;39.10
9668;DHT22;4872;48.316;10.650;2023-02-21T15:58:01;32.90;38.60
9668;DHT22;4872;48.316;10.650;2023-02-21T16:00:30;33.10;38.30
9668;DHT22;4872;48.316;10.650;2023-02-21T16:03:26;32.90;38.10
9668;DHT22;4872;48.316;10.650;2023-02-21T16:05:53;32.70;37.60
9668;DHT22;4872;48.316;10.650;2023-02-21T16:08:21;32.50;37.50
9668;DHT22;4872;48.316;10.650;2023-02-21T16:10:48;32.30;37.40
9668;DHT22;4872;48.316;10.650;2023-02-21T16:13:16;31.90;37.60
9668;DHT22;4872;48.316;10.650;2023-02-21T16:15:43;31.70;37.70
9668;DHT22;4872;48.316;10.650;2023-02-21T16:18:16;31.30;37.60
9668;DHT22;4872;48.316;10.650;2023-02-21T16:20:44;30.40;38.10
9668;DHT22;4872;48.316;10.650;2023-02-21T16:23:19;29.50;38.30
9668;DHT22;4872;48.316;10.650;2023-02-21T16:25:55;28.40;39.20
9668;DHT22;4872;48.316;10.650;2023-02-21T16:28:24;27.00;40.50
9668;DHT22;4872;48.316;10.650;2023-02-21T16:30:51;25.70;41.70
9668;DHT22;4872;48.316;10.650;2023-02-21T16:33:20;24.30;42.90
9668;DHT22;4872;48.316;10.650;2023-02-21T16:35:46;22.90;43.90
9668;DHT22;4872;48.316;10.650;2023-02-21T16:38:15;21.50;45.50
9668;DHT22;4872;48.316;10.650;2023-02-21T16:40:43;20.50;46.70
9668;DHT22;4872;48.316;10.650;2023-02-21T16:43:16;19.20;47.50
9668;DHT22;4872;48.316;10.650;2023-02-21T16:45:44;18.20;48.90
9668;DHT22;4872;48.316;10.650;2023-02-21T16:48:16;17.30;50.10
9668;DHT22;4872;48.316;10.650;2023-02-21T16:50:46;16.60;51.70
9668;DHT22;4872;48.316;10.650;2023-02-21T16:53:14;16.20;51.90
9668;DHT22;4872;48.316;10.650;2023-02-21T16:55:43;16.00;52.30
9668;DHT22;4872;48.316;10.650;2023-02-21T16:58:18;15.70;52.10
9668;DHT22;4872;48.316;10.650;2023-02-21T17:00:49;15.30;52.60
9668;DHT22;4872;48.316;10.650;2023-02-21T17:03:17;15.00;52.60
9668;DHT22;4872;48.316;10.650;2023-02-21T17:05:44;14.80;52.80
9668;DHT22;4872;48.316;10.650;2023-02-21T17:08:11;14.50;53.40
9668;DHT22;4872;48.316;10.650;2023-02-21T17:10:38;14.20;53.80
9668;DHT22;4872;48.316;10.650;2023-02-21T17:13:04;14.10;54.20
9668;DHT22;4872;48.316;10.650;2023-02-21T17:15:31;14.00;54.30
9668;DHT22;4872;48.316;10.650;2023-02-21T17:18:00;13.90;54.30
9668;DHT22;4872;48.316;10.650;2023-02-21T17:20:27;13.70;54.50
9668;DHT22;4872;48.316;10.650;2023-02-21T17:22:54;13.60;55.00
9668;DHT22;4872;48.316;10.650;2023-02-21T17:25:23;13.40;55.50
9668;DHT22;4872;48.316;10.650;2023-02-21T17:27:50;13.20;56.20
9668;DHT22;4872;48.316;10.650;2023-02-21T17:30:19;13.20;56.10
9668;DHT22;4872;48.316;10.650;2023-02-21T17:32:47;12.90;56.10
9668;DHT22;4872;48.316;10.650;2023-02-21T17:35:16;12.80;56.60
9668;DHT22;4872;48.316;10.650;2023-02-21T17:37:44;12.70;57.00
9668;DHT22;4872;48.316;10.650;2023-02-21T17:40:12;12.60;57.50
9668;DHT22;4872;48.316;10.650;2023-02-21T17:42:40;12.40;57.60
9668;DHT22;4872;48.316;10.650;2023-02-21T17:45:07;12.40;58.10
9668;DHT22;4872;48.316;10.650;2023-02-21T17:47:34;12.30;58.30
9668;DHT22;4872;48.316;10.650;2023-02-21T17:50:02;12.20;58.70
9668;DHT22;4872;48.316;10.650;2023-02-21T17:52:31;12.20;59.00
9668;DHT22;4872;48.316;10.650;2023-02-21T17:54:58;12.00;59.40
9668;DHT22;4872;48.316;10.650;2023-02-21T17:57:27;12.00;59.30
9668;DHT22;4872;48.316;10.650;2023-02-21T17:59:59;12.00;59.60
9668;DHT22;4872;48.316;10.650;2023-02-21T18:02:26;11.90;60.20
9668;DHT22;4872;48.316;10.650;2023-02-21T18:04:53;11.80;60.70
9668;DHT22;4872;48.316;10.650;2023-02-21T18:07:19;11.70;61.00
9668;DHT22;4872;48.316;10.650;2023-02-21T18:09:48;12.00;61.30
9668;DHT22;4872;48.316;10.650;2023-02-21T18:12:15;11.60;61.20
9668;DHT22;4872;48.316;10.650;2023-02-21T18:14:41;11.40;61.70
9668;DHT22;4872;48.316;10.650;2023-02-21T18:17:08;11.50;62.50
9668;DHT22;4872;48.316;10.650;2023-02-21T18:19:35;11.50;63.20
9668;DHT22;4872;48.316;10.650;2023-02-21T18:22:02;11.00;63.40
9668;DHT22;4872;48.316;10.650;2023-02-21T18:24:30;10.90;63.60
9668;DHT22;4872;48.316;10.650;2023-02-21T18:26:59;11.10;64.80
9668;DHT22;4872;48.316;10.650;2023-02-21T18:29:25;11.10;64.90
9668;DHT22;4872;48.316;10.650;2023-02-21T18:31:52;10.70;64.80
9668;DHT22;4872;48.316;10.650;2023-02-21T18:34:20;10.90;65.50
9668;DHT22;4872;48.316;10.650;2023-02-21T18:36:47;10.70;65.00
9668;DHT22;4872;48.316;10.650;2023-02-21T18:39:15;10.90;65.40
9668;DHT22;4872;48.316;10.650;2023-02-21T18:41:41;10.50;65.30
9668;DHT22;4872;48.316;10.650;2023-02-21T18:44:19;10.60;65.70
9668;DHT22;4872;48.316;10.650;2023-02-21T18:46:50;10.60;65.90
9668;DHT22;4872;48.316;10.650;2023-02-21T18:49:27;10.70;66.40
9668;DHT22;4872;48.316;10.650;2023-02-21T18:51:56;10.40;66.10
9668;DHT22;4872;48.316;10.650;2023-02-21T18:54:27;10.20;66.50
9668;DHT22;4872;48.316;10.650;2023-02-21T18:56:55;9.90;68.10
9668;DHT22;4872;48.316;10.650;2023-02-21T18:59:25;10.00;67.50
9668;DHT22;4872;48.316;10.650;2023-02-21T19:01:53;9.90;68.30
9668;DHT22;4872;48.316;10.650;2023-02-21T19:04:20;9.70;68.80
9668;DHT22;4872;48.316;10.650;2023-02-21T19:06:47;9.70;69.50
9668;DHT22;4872;48.316;10.650;2023-02-21T19:09:14;9.60;69.40
9668;DHT22;4872;48.316;10.650;2023-02-21T19:11:41;9.60;69.10
9668;DHT22;4872;48.316;10.650;2023-02-21T19:14:08;9.70;69.20
9668;DHT22;4872;48.316;10.650;2023-02-21T19:16:36;9.60;69.00
9668;DHT22;4872;48.316;10.650;2023-02-21T19:19:03;9.50;69.10
9668;DHT22;4872;48.316;10.650;2023-02-21T19:21:30;9.50;69.40
9668;DHT22;4872;48.316;10.650;2023-02-21T19:23:58;9.30;69.70
9668;DHT22;4872;48.316;10.650;2023-02-21T19:26:26;9.30;70.20
9668;DHT22;4872;48.316;10.650;2023-02-21T19:28:53;9.70;70.30
9668;DHT22;4872;48.316;10.650;2023-02-21T19:31:20;9.30;70.30
9668;DHT22;4872;48.316;10.650;2023-02-21T19:33:48;9.60;70.40
9668;DHT22;4872;48.316;10.650;2023-02-21T19:36:15;9.10;70.80
9668;DHT22;4872;48.316;10.650;2023-02-21T19:38:42;9.10;70.90
9668;DHT22;4872;48.316;10.650;2023-02-21T19:41:08;9.10;71.20
9668;DHT22;4872;48.316;10.650;2023-02-21T19:43:35;9.20;71.80
9668;DHT22;4872;48.316;10.650;2023-02-21T19:46:02;8.60;72.00
9668;DHT22;4872;48.316;10.650;2023-02-21T19:48:29;8.90;72.60
9668;DHT22;4872;48.316;10.650;2023-02-21T19:50:57;8.90;72.50
9668;DHT22;4872;48.316;10.650;2023-02-21T19:53:24;8.80;72.20
9668;DHT22;4872;48.316;10.650;2023-02-21T19:55:51;8.90;72.00
9668;DHT22;4872;48.316;10.650;2023-02-21T19:58:18;8.80;72.20
9668;DHT22;4872;48.316;10.650;2023-02-21T20:00:45;8.90;73.60
9668;DHT22;4872;48.316;10.650;2023-02-21T20:03:11;8.50;73.80
9668;DHT22;4872;48.316;10.650;2023-02-21T20:05:38;8.30;73.40
9668;DHT22;4872;48.316;10.650;2023-02-21T20:08:06;8.40;73.80
9668;DHT22;4872;48.316;10.650;2023-02-21T20:10:33;8.50;74.10
9668;DHT22;4872;48.316;10.650;2023-02-21T20:13:00;8.80;74.10
9668;DHT22;4872;48.316;10.650;2023-02-21T20:15:31;8.60;73.80
9668;DHT22;4872;48.316;10.650;2023-02-21T20:17:58;8.90;74.20
9668;DHT22;4872;48.316;10.650;2023-02-21T20:20:26;9.00;74.40
9668;DHT22;4872;48.316;10.650;2023-02-21T20:22:53;8.30;74.00
9668;DHT22;4872;48.316;10.650;2023-02-21T20:25:23;8.40;75.10
9668;DHT22;4872;48.316;10.650;2023-02-21T20:27:50;8.10;74.50
9668;DHT22;4872;48.316;10.650;2023-02-21T20:30:17;8.10;74.50
9668;DHT22;4872;48.316;10.650;2023-02-21T20:32:44;7.90;74.80
9668;DHT22;4872;48.316;10.650;2023-02-21T20:35:10;7.80;75.30
9668;DHT22;4872;48.316;10.650;2023-02-21T20:37:38;8.00;75.60
9668;DHT22;4872;48.316;10.650;2023-02-21T20:40:05;8.00;75.20
9668;DHT22;4872;48.316;10.650;2023-02-21T20:42:36;7.80;75.90
9668;DHT22;4872;48.316;10.650;2023-02-21T20:45:04;8.20;76.30
9668;DHT22;4872;48.316;10.650;2023-02-21T20:47:31;7.70;76.40
9668;DHT22;4872;48.316;10.650;2023-02-21T20:49:58;8.30;76.90
9668;DHT22;4872;48.316;10.650;2023-02-21T20:52:25;8.20;77.20
9668;DHT22;4872;48.316;10.650;2023-02-21T20:54:52;7.80;77.10
9668;DHT22;4872;48.316;10.650;2023-02-21T20:57:19;7.60;77.20
9668;DHT22;4872;48.316;10.650;2023-02-21T20:59:47;7.60;77.00
9668;DHT22;4872;48.316;10.650;2023-02-21T21:02:14;7.70;76.70
9668;DHT22;4872;48.316;10.650;2023-02-21T21:04:42;7.60;77.10
9668;DHT22;4872;48.316;10.650;2023-02-21T21:07:12;7.90;77.80
9668;DHT22;4872;48.316;10.650;2023-02-21T21:09:40;7.50;77.00
9668;DHT22;4872;48.316;10.650;2023-02-21T21:12:11;7.40;77.10
9668;DHT22;4872;48.316;10.650;2023-02-21T21:14:40;7.40;77.20
9668;DHT22;4872;48.316;10.650;2023-02-21T21:17:09;7.50;77.00
9668;DHT22;4872;48.316;10.650;2023-02-21T21:19:39;7.40;77.20
9668;DHT22;4872;48.316;10.650;2023-02-21T21:22:08;7.30;78.00
9668;DHT22;4872;48.316;10.650;2023-02-21T21:24:35;7.20;78.50
9668;DHT22;4872;48.316;10.650;2023-02-21T21:27:03;7.10;77.00
9668;DHT22;4872;48.316;10.650;2023-02-21T21:29:30;7.20;77.60
9668;DHT22;4872;48.316;10.650;2023-02-21T21:31:58;7.00;78.00
9668;DHT22;4872;48.316;10.650;2023-02-21T21:34:27;7.10;78.40